sensor_id;sensor_type;location;lat;lon;timestamp;temperature;humidity
41481;DHT22;27217;51.220;5.308;2024-02-14T00:00:34;8.40;99.90
41481;DHT22;27217;51.220;5.308;2024-02-14T00:02:59;8.40;99.90
41481;DHT22;27217;51.220;5.308;2024-02-14T00:05:25;8.40;99.90
41481;DHT22;27217;51.220;5.308;2024-02-14T00:07:51;8.30;99.90
41481;DHT22;27217;51.220;5.308;2024-02-14T00:10:17;8.30;99.90
41481;DHT22;27217;51.220;5.308;2024-02-14T00:12:42;8.50;99.90
41481;DHT22;27217;51.220;5.308;2024-02-14T00:15:08;8.50;99.90
41481;DHT22;27217;51.220;5.308;2024-02-14T00:17:34;8.50;99.90
41481;DHT22;27217;51.220;5.308;2024-02-14T00:20:00;8.60;99.90
41481;DHT22;27217;51.220;5.308;2024-02-14T00:22:26;8.60;99.90
41481;DHT22;27217;51.220;5.308;2024-02-14T00:24:51;8.50;99.90
41481;DHT22;27217;51.220;5.308;2024-02-14T00:27:17;8.50;99.90
41481;DHT22;27217;51.220;5.308;2024-02-14T00:29:43;8.50;99.90
41481;DHT22;27217;51.220;5.308;2024-02-14T00:32:11;8.60;99.90
41481;DHT22;27217;51.220;5.308;2024-02-14T00:34:37;8.60;99.90
41481;DHT22;27217;51.220;5.308;2024-02-14T00:37:03;8.60;99.90
41481;DHT22;27217;51.220;5.308;2024-02-14T00:39:28;8.60;99.90
41481;DHT22;27217;51.220;5.308;2024-02-14T00:41:54;8.60;99.90
41481;DHT22;27217;51.220;5.308;2024-02-14T00:44:21;8.60;99.90
41481;DHT22;27217;51.220;5.308;2024-02-14T00:46:47;8.50;99.90
41481;DHT22;27217;51.220;5.308;2024-02-14T00:49:14;8.60;99.90
41481;DHT22;27217;51.220;5.308;2024-02-14T00:51:39;8.70;99.90
41481;DHT22;27217;51.220;5.308;2024-02-14T00:54:08;8.70;99.90
41481;DHT22;27217;51.220;5.308;2024-02-14T00:56:34;8.70;99.90
41481;DHT22;27217;51.220;5.308;2024-02-14T00:59:00;8.80;99.90
41481;DHT22;27217;51.220;5.308;2024-02-14T01:01:26;8.80;99.90
41481;DHT22;27217;51.220;5.308;2024-02-14T01:03:51;8.90;99.90
41481;DHT22;27217;51.220;5.308;2024-02-14T01:06:17;8.90;99.90
41481;DHT22;27217;51.220;5.308;2024-02-14T01:08:43;8.90;99.90
41481;DHT22;27217;51.220;5.308;2024-02-14T01:11:09;8.90;99.90
41481;DHT22;27217;51.220;5.308;2024-02-14T01:13:35;9.10;99.90
41481;DHT22;27217;51.220;5.308;2024-02-14T01:16:00;9.00;99.90
41481;DHT22;27217;51.220;5.308;2024-02-14T01:18:26;9.10;99.90
41481;DHT22;27217;51.220;5.308;2024-02-14T01:20:51;9.10;99.90
41481;DHT22;27217;51.220;5.308;2024-02-14T01:23:19;9.10;99.90
41481;DHT22;27217;51.220;5.308;2024-02-14T01:25:45;9.10;99.90
41481;DHT22;27217;51.220;5.308;2024-02-14T01:28:11;9.40;99.90
41481;DHT22;27217;51.220;5.308;2024-02-14T01:30:36;9.40;99.90
41481;DHT22;27217;51.220;5.308;2024-02-14T01:33:02;9.50;99.90
41481;DHT22;27217;51.220;5.308;2024-02-14T01:35:31;9.50;99.90
41481;DHT22;27217;51.220;5.308;2024-02-14T01:37:56;9.40;99.90
41481;DHT22;27217;51.220;5.308;2024-02-14T01:40:22;9.30;99.90
41481;DHT22;27217;51.220;5.308;2024-02-14T01:42:48;9.20;99.90
41481;DHT22;27217;51.220;5.308;2024-02-14T01:45:14;9.20;99.90
41481;DHT22;27217;51.220;5.308;2024-02-14T01:47:39;9.20;99.90
41481;DHT22;27217;51.220;5.308;2024-02-14T01:50:09;9.40;99.90
41481;DHT22;27217;51.220;5.308;2024-02-14T01:52:39;9.30;99.90
41481;DHT22;27217;51.220;5.308;2024-02-14T01:55:06;9.20;99.90
41481;DHT22;27217;51.220;5.308;2024-02-14T01:57:33;9.00;99.90
41481;DHT22;27217;51.220;5.308;2024-02-14T01:59:59;9.10;99.90
41481;DHT22;27217;51.220;5.308;2024-02-14T02:02:26;9.10;99.90
41481;DHT22;27217;51.220;5.308;2024-02-14T02:04:52;9.10;99.90
41481;DHT22;27217;51.220;5.308;2024-02-14T02:07:18;9.10;99.90
41481;DHT22;27217;51.220;5.308;2024-02-14T02:09:45;9.20;99.90
41481;DHT22;27217;51.220;5.308;2024-02-14T02:12:10;9.10;99.90
41481;DHT22;27217;51.220;5.308;2024-02-14T02:14:36;9.10;99.90
41481;DHT22;27217;51.220;5.308;2024-02-14T02:17:02;9.10;99.90
41481;DHT22;27217;51.220;5.308;2024-02-14T02:19:32;9.10;99.90
41481;DHT22;27217;51.220;5.308;2024-02-14T02:21:58;8.90;99.90
41481;DHT22;27217;51.220;5.308;2024-02-14T02:24:24;8.90;99.90
41481;DHT22;27217;51.220;5.308;2024-02-14T02:26:50;9.00;99.90
41481;DHT22;27217;51.220;5.308;2024-02-14T02:29:15;9.00;99.90
41481;DHT22;27217;51.220;5.308;2024-02-14T02:31:41;8.90;99.90
41481;DHT22;27217;51.220;5.308;2024-02-14T02:34:07;9.00;99.90
41481;DHT22;27217;51.220;5.308;2024-02-14T02:36:36;9.20;99.90
41481;DHT22;27217;51.220;5.308;2024-02-14T02:39:03;9.20;99.90
41481;DHT22;27217;51.220;5.308;2024-02-14T02:41:30;9.20;99.90
41481;DHT22;27217;51.220;5.308;2024-02-14T02:43:57;9.30;99.90
41481;DHT22;27217;51.220;5.308;2024-02-14T02:46:22;9.30;99.90
41481;DHT22;27217;51.220;5.308;2024-02-14T02:48:48;9.20;99.90
41481;DHT22;27217;51.220;5.308;2024-02-14T02:51:17;9.20;99.90
41481;DHT22;27217;51.220;5.308;2024-02-14T02:53:43;9.30;99.90
41481;DHT22;27217;51.220;5.308;2024-02-14T02:56:09;9.40;99.90
41481;DHT22;27217;51.220;5.308;2024-02-14T02:58:34;9.20;99.90
41481;DHT22;27217;51.220;5.308;2024-02-14T03:01:00;9.30;99.90
41481;DHT22;27217;51.220;5.308;2024-02-14T03:03:26;9.40;99.90
41481;DHT22;27217;51.220;5.308;2024-02-14T03:05:53;9.50;99.90
41481;DHT22;27217;51.220;5.308;2024-02-14T03:08:20;9.50;99.90
41481;DHT22;27217;51.220;5.308;2024-02-14T03:10:47;9.50;99.90
41481;DHT22;27217;51.220;5.308;2024-02-14T03:13:12;9.60;99.90
41481;DHT22;27217;51.220;5.308;2024-02-14T03:15:38;9.30;99.90
41481;DHT22;27217;51.220;5.308;2024-02-14T03:18:03;9.30;99.90
41481;DHT22;27217;51.220;5.308;2024-02-14T03:20:33;9.40;99.90
41481;DHT22;27217;51.220;5.308;2024-02-14T03:22:59;9.60;99.90
41481;DHT22;27217;51.220;5.308;2024-02-14T03:25:24;9.40;99.90
41481;DHT22;27217;51.220;5.308;2024-02-14T03:27:51;9.50;99.90
41481;DHT22;27217;51.220;5.308;2024-02-14T03:30:19;9.60;99.90
41481;DHT22;27217;51.220;5.308;2024-02-14T03:32:45;9.50;99.90
41481;DHT22;27217;51.220;5.308;2024-02-14T03:35:12;9.60;99.90
41481;DHT22;27217;51.220;5.308;2024-02-14T03:37:39;9.70;99.90
41481;DHT22;27217;51.220;5.308;2024-02-14T03:40:05;9.70;99.90
41481;DHT22;27217;51.220;5.308;2024-02-14T03:42:30;9.80;99.90
41481;DHT22;27217;51.220;5.308;2024-02-14T03:44:56;9.60;99.90
41481;DHT22;27217;51.220;5.308;2024-02-14T03:47:28;9.70;99.90
41481;DHT22;27217;51.220;5.308;2024-02-14T03:49:54;9.70;99.90
41481;DHT22;27217;51.220;5.308;2024-02-14T03:52:20;9.70;99.90
41481;DHT22;27217;51.220;5.308;2024-02-14T03:54:47;9.70;99.90
41481;DHT22;27217;51.220;5.308;2024-02-14T03:57:13;9.60;99.90
41481;DHT22;27217;51.220;5.308;2024-02-14T03:59:39;9.50;99.90
41481;DHT22;27217;51.220;5.308;2024-02-14T04:02:05;9.50;99.90
41481;DHT22;27217;51.220;5.308;2024-02-14T04:04:36;9.70;99.90
41481;DHT22;27217;51.220;5.308;2024-02-14T04:07:02;9.60;99.90
41481;DHT22;27217;51.220;5.308;2024-02-14T04:09:27;9.40;99.90
41481;DHT22;27217;51.220;5.308;2024-02-14T04:11:53;9.50;99.90
41481;DHT22;27217;51.220;5.308;2024-02-14T04:14:21;9.50;99.90
41481;DHT22;27217;51.220;5.308;2024-02-14T04:16:47;9.50;99.90
41481;DHT22;27217;51.220;5.308;2024-02-14T04:19:13;9.50;99.90
41481;DHT22;27217;51.220;5.308;2024-02-14T04:21:38;9.60;99.90
41481;DHT22;27217;51.220;5.308;2024-02-14T04:24:04;9.60;99.90
41481;DHT22;27217;51.220;5.308;2024-02-14T04:26:29;9.70;99.90
41481;DHT22;27217;51.220;5.308;2024-02-14T04:28:55;9.50;99.90
41481;DHT22;27217;51.220;5.308;2024-02-14T04:31:21;9.40;99.90
41481;DHT22;27217;51.220;5.308;2024-02-14T04:33:49;9.50;99.90
41481;DHT22;27217;51.220;5.308;2024-02-14T04:36:18;9.60;99.90
41481;DHT22;27217;51.220;5.308;2024-02-14T04:38:44;9.70;99.90
41481;DHT22;27217;51.220;5.308;2024-02-14T04:41:10;9.70;99.90
41481;DHT22;27217;51.220;5.308;2024-02-14T04:43:38;9.50;99.90
41481;DHT22;27217;51.220;5.308;2024-02-14T04:46:04;9.50;99.90
41481;DHT22;27217;51.220;5.308;2024-02-14T04:48:35;9.60;99.90
41481;DHT22;27217;51.220;5.308;2024-02-14T04:51:02;9.60;99.90
41481;DHT22;27217;51.220;5.308;2024-02-14T04:53:27;9.60;99.90
41481;DHT22;27217;51.220;5.308;2024-02-14T04:55:53;9.70;99.90
41481;DHT22;27217;51.220;5.308;2024-02-14T04:58:19;9.60;99.90
41481;DHT22;27217;51.220;5.308;2024-02-14T05:00:44;9.40;99.90
41481;DHT22;27217;51.220;5.308;2024-02-14T05:03:10;10.00;99.90
41481;DHT22;27217;51.220;5.308;2024-02-14T05:05:36;9.40;99.90
41481;DHT22;27217;51.220;5.308;2024-02-14T05:08:01;9.50;99.90
41481;DHT22;27217;51.220;5.308;2024-02-14T05:10:30;9.40;99.90
41481;DHT22;27217;51.220;5.308;2024-02-14T05:12:56;9.30;99.90
41481;DHT22;27217;51.220;5.308;2024-02-14T05:15:22;9.30;99.90
41481;DHT22;27217;51.220;5.308;2024-02-14T05:17:47;9.50;99.90
41481;DHT22;27217;51.220;5.308;2024-02-14T05:20:14;9.40;99.90
41481;DHT22;27217;51.220;5.308;2024-02-14T05:22:40;9.30;99.90
41481;DHT22;27217;51.220;5.308;2024-02-14T05:25:05;9.30;99.90
41481;DHT22;27217;51.220;5.308;2024-02-14T05:27:37;9.40;99.90
41481;DHT22;27217;51.220;5.308;2024-02-14T05:30:03;9.40;99.90
41481;DHT22;27217;51.220;5.308;2024-02-14T05:32:32;9.50;99.90
41481;DHT22;27217;51.220;5.308;2024-02-14T05:34:57;9.50;99.90
41481;DHT22;27217;51.220;5.308;2024-02-14T05:37:23;9.50;99.90
41481;DHT22;27217;51.220;5.308;2024-02-14T05:39:49;9.50;99.90
41481;DHT22;27217;51.220;5.308;2024-02-14T05:42:14;9.60;99.90
41481;DHT22;27217;51.220;5.308;2024-02-14T05:44:41;9.80;99.90
41481;DHT22;27217;51.220;5.308;2024-02-14T05:47:08;9.90;99.90
41481;DHT22;27217;51.220;5.308;2024-02-14T05:49:34;9.70;99.90
41481;DHT22;27217;51.220;5.308;2024-02-14T05:52:02;9.90;99.90
41481;DHT22;27217;51.220;5.308;2024-02-14T05:54:27;9.80;99.90
41481;DHT22;27217;51.220;5.308;2024-02-14T05:56:53;9.70;99.90
41481;DHT22;27217;51.220;5.308;2024-02-14T05:59:18;9.70;99.90
41481;DHT22;27217;51.220;5.308;2024-02-14T06:01:46;9.70;99.90
41481;DHT22;27217;51.220;5.308;2024-02-14T06:04:11;9.70;99.90
41481;DHT22;27217;51.220;5.308;2024-02-14T06:06:37;9.60;99.90
41481;DHT22;27217;51.220;5.308;2024-02-14T06:09:03;9.70;99.90
41481;DHT22;27217;51.220;5.308;2024-02-14T06:11:35;9.60;99.90
41481;DHT22;27217;51.220;5.308;2024-02-14T06:14:00;9.60;99.90
41481;DHT22;27217;51.220;5.308;2024-02-14T06:16:26;9.50;99.90
41481;DHT22;27217;51.220;5.308;2024-02-14T06:18:51;9.50;99.90
41481;DHT22;27217;51.220;5.308;2024-02-14T06:21:17;9.70;99.90
41481;DHT22;27217;51.220;5.308;2024-02-14T06:23:44;9.90;99.90
41481;DHT22;27217;51.220;5.308;2024-02-14T06:26:12;10.00;99.90
41481;DHT22;27217;51.220;5.308;2024-02-14T06:28:37;10.00;99.90
41481;DHT22;27217;51.220;5.308;2024-02-14T06:31:03;10.10;99.90
41481;DHT22;27217;51.220;5.308;2024-02-14T06:33:28;10.00;99.90
41481;DHT22;27217;51.220;5.308;2024-02-14T06:35:54;9.90;99.90
41481;DHT22;27217;51.220;5.308;2024-02-14T06:38:19;9.80;99.90
41481;DHT22;27217;51.220;5.308;2024-02-14T06:40:45;9.80;99.90
41481;DHT22;27217;51.220;5.308;2024-02-14T06:43:11;9.90;99.90
41481;DHT22;27217;51.220;5.308;2024-02-14T06:45:37;10.10;99.90
41481;DHT22;27217;51.220;5.308;2024-02-14T06:48:03;9.90;99.90
41481;DHT22;27217;51.220;5.308;2024-02-14T06:50:29;10.00;99.90
41481;DHT22;27217;51.220;5.308;2024-02-14T06:52:55;10.00;99.90
41481;DHT22;27217;51.220;5.308;2024-02-14T06:55:25;10.00;99.90
41481;DHT22;27217;51.220;5.308;2024-02-14T06:57:50;9.90;99.90
41481;DHT22;27217;51.220;5.308;2024-02-14T07:00:16;9.80;99.90
41481;DHT22;27217;51.220;5.308;2024-02-14T07:02:42;9.90;99.90
41481;DHT22;27217;51.220;5.308;2024-02-14T07:05:08;10.00;99.90
41481;DHT22;27217;51.220;5.308;2024-02-14T07:07:37;10.10;99.90
41481;DHT22;27217;51.220;5.308;2024-02-14T07:10:04;10.10;99.90
41481;DHT22;27217;51.220;5.308;2024-02-14T07:12:31;10.00;99.90
41481;DHT22;27217;51.220;5.308;2024-02-14T07:14:57;10.20;99.90
41481;DHT22;27217;51.220;5.308;2024-02-14T07:17:23;10.20;99.90
41481;DHT22;27217;51.220;5.308;2024-02-14T07:19:48;10.10;99.90
41481;DHT22;27217;51.220;5.308;2024-02-14T07:22:17;10.00;99.90
41481;DHT22;27217;51.220;5.308;2024-02-14T07:24:44;10.10;99.90
41481;DHT22;27217;51.220;5.308;2024-02-14T07:27:11;10.10;99.90
41481;DHT22;27217;51.220;5.308;2024-02-14T07:29:37;10.00;99.90
41481;DHT22;27217;51.220;5.308;2024-02-14T07:32:02;9.90;99.90
41481;DHT22;27217;51.220;5.308;2024-02-14T07:34:28;10.10;99.90
41481;DHT22;27217;51.220;5.308;2024-02-14T07:36:54;10.10;99.90
41481;DHT22;27217;51.220;5.308;2024-02-14T07:39:19;10.20;99.90
41481;DHT22;27217;51.220;5.308;2024-02-14T07:41:45;10.20;99.90
41481;DHT22;27217;51.220;5.308;2024-02-14T07:44:11;10.20;99.90
41481;DHT22;27217;51.220;5.308;2024-02-14T07:46:37;10.10;99.90
41481;DHT22;27217;51.220;5.308;2024-02-14T07:49:03;10.00;99.90
41481;DHT22;27217;51.220;5.308;2024-02-14T07:51:29;10.10;99.90
41481;DHT22;27217;51.220;5.308;2024-02-14T07:53:55;10.20;99.90
41481;DHT22;27217;51.220;5.308;2024-02-14T07:56:21;10.30;99.90
41481;DHT22;27217;51.220;5.308;2024-02-14T07:58:47;10.30;99.90
41481;DHT22;27217;51.220;5.308;2024-02-14T08:01:15;10.30;99.90
41481;DHT22;27217;51.220;5.308;2024-02-14T08:03:40;10.10;99.90
41481;DHT22;27217;51.220;5.308;2024-02-14T08:06:06;10.30;99.90
41481;DHT22;27217;51.220;5.308;2024-02-14T08:08:32;10.20;99.90
41481;DHT22;27217;51.220;5.308;2024-02-14T08:10:57;10.10;99.90
41481;DHT22;27217;51.220;5.308;2024-02-14T08:13:23;10.30;99.90
41481;DHT22;27217;51.220;5.308;2024-02-14T08:15:48;10.40;99.90
41481;DHT22;27217;51.220;5.308;2024-02-14T08:18:15;10.50;99.90
41481;DHT22;27217;51.220;5.308;2024-02-14T08:20:40;10.50;99.90
41481;DHT22;27217;51.220;5.308;2024-02-14T08:23:06;10.40;99.90
41481;DHT22;27217;51.220;5.308;2024-02-14T08:25:32;10.60;99.90
41481;DHT22;27217;51.220;5.308;2024-02-14T08:27:57;10.50;99.90
41481;DHT22;27217;51.220;5.308;2024-02-14T08:30:23;10.60;99.90
41481;DHT22;27217;51.220;5.308;2024-02-14T08:32:48;10.60;99.90
41481;DHT22;27217;51.220;5.308;2024-02-14T08:35:14;10.50;99.90
41481;DHT22;27217;51.220;5.308;2024-02-14T08:37:40;10.50;99.90
41481;DHT22;27217;51.220;5.308;2024-02-14T08:40:06;10.50;99.90
41481;DHT22;27217;51.220;5.308;2024-02-14T08:42:32;10.60;99.90
41481;DHT22;27217;51.220;5.308;2024-02-14T08:44:58;10.90;99.90
41481;DHT22;27217;51.220;5.308;2024-02-14T08:47:24;10.80;99.90
41481;DHT22;27217;51.220;5.308;2024-02-14T08:49:49;11.00;99.90
41481;DHT22;27217;51.220;5.308;2024-02-14T08:52:15;11.00;99.90
41481;DHT22;27217;51.220;5.308;2024-02-14T08:54:41;11.10;99.90
41481;DHT22;27217;51.220;5.308;2024-02-14T08:57:07;11.00;99.90
41481;DHT22;27217;51.220;5.308;2024-02-14T08:59:32;11.00;99.90
41481;DHT22;27217;51.220;5.308;2024-02-14T09:01:58;11.10;99.90
41481;DHT22;27217;51.220;5.308;2024-02-14T09:04:24;11.00;99.90
41481;DHT22;27217;51.220;5.308;2024-02-14T09:06:49;11.20;99.90
41481;DHT22;27217;51.220;5.308;2024-02-14T09:09:15;11.00;99.90
41481;DHT22;27217;51.220;5.308;2024-02-14T09:11:41;10.80;99.90
41481;DHT22;27217;51.220;5.308;2024-02-14T09:14:06;10.90;99.90
41481;DHT22;27217;51.220;5.308;2024-02-14T09:16:32;10.70;99.90
41481;DHT22;27217;51.220;5.308;2024-02-14T09:18:59;10.70;99.90
41481;DHT22;27217;51.220;5.308;2024-02-14T09:21:24;10.80;99.90
41481;DHT22;27217;51.220;5.308;2024-02-14T09:23:50;10.90;99.90
41481;DHT22;27217;51.220;5.308;2024-02-14T09:26:15;10.70;99.90
41481;DHT22;27217;51.220;5.308;2024-02-14T09:28:42;10.90;99.90
41481;DHT22;27217;51.220;5.308;2024-02-14T09:31:08;10.50;99.90
41481;DHT22;27217;51.220;5.308;2024-02-14T09:33:36;10.80;99.90
41481;DHT22;27217;51.220;5.308;2024-02-14T09:36:08;10.60;99.90
41481;DHT22;27217;51.220;5.308;2024-02-14T09:38:34;10.70;99.90
41481;DHT22;27217;51.220;5.308;2024-02-14T09:43:52;10.70;99.90
41481;DHT22;27217;51.220;5.308;2024-02-14T09:46:18;10.70;99.90
41481;DHT22;27217;51.220;5.308;2024-02-14T09:48:44;9.50;99.90
41481;DHT22;27217;51.220;5.308;2024-02-14T09:51:10;10.80;99.90
41481;DHT22;27217;51.220;5.308;2024-02-14T09:53:38;10.80;99.90
41481;DHT22;27217;51.220;5.308;2024-02-14T09:56:04;10.90;99.90
41481;DHT22;27217;51.220;5.308;2024-02-14T09:58:31;10.70;99.90
41481;DHT22;27217;51.220;5.308;2024-02-14T10:01:00;10.90;99.90
41481;DHT22;27217;51.220;5.308;2024-02-14T10:03:26;10.90;99.90
41481;DHT22;27217;51.220;5.308;2024-02-14T10:05:52;10.80;99.90
41481;DHT22;27217;51.220;5.308;2024-02-14T10:08:18;10.70;99.90
41481;DHT22;27217;51.220;5.308;2024-02-14T10:10:46;10.80;99.90
41481;DHT22;27217;51.220;5.308;2024-02-14T10:13:12;10.80;99.90
41481;DHT22;27217;51.220;5.308;2024-02-14T10:15:38;10.90;99.90
41481;DHT22;27217;51.220;5.308;2024-02-14T10:18:04;10.80;99.90
41481;DHT22;27217;51.220;5.308;2024-02-14T10:20:30;10.80;99.90
41481;DHT22;27217;51.220;5.308;2024-02-14T10:23:02;10.90;99.90
41481;DHT22;27217;51.220;5.308;2024-02-14T10:25:29;11.00;99.90
41481;DHT22;27217;51.220;5.308;2024-02-14T10:27:55;11.00;99.90
41481;DHT22;27217;51.220;5.308;2024-02-14T10:30:20;10.90;99.90
41481;DHT22;27217;51.220;5.308;2024-02-14T10:32:47;11.00;99.90
41481;DHT22;27217;51.220;5.308;2024-02-14T10:35:14;11.30;99.90
41481;DHT22;27217;51.220;5.308;2024-02-14T10:37:40;11.40;99.90
41481;DHT22;27217;51.220;5.308;2024-02-14T10:40:06;12.50;99.90
41481;DHT22;27217;51.220;5.308;2024-02-14T10:42:34;11.00;99.90
41481;DHT22;27217;51.220;5.308;2024-02-14T10:45:01;10.90;99.90
41481;DHT22;27217;51.220;5.308;2024-02-14T10:47:30;11.00;99.90
41481;DHT22;27217;51.220;5.308;2024-02-14T10:49:58;11.80;99.90
41481;DHT22;27217;51.220;5.308;2024-02-14T10:52:27;10.30;99.90
41481;DHT22;27217;51.220;5.308;2024-02-14T10:54:56;10.20;99.90
41481;DHT22;27217;51.220;5.308;2024-02-14T10:57:23;11.00;99.90
41481;DHT22;27217;51.220;5.308;2024-02-14T10:59:49;10.90;99.90
41481;DHT22;27217;51.220;5.308;2024-02-14T11:02:16;10.90;99.90
41481;DHT22;27217;51.220;5.308;2024-02-14T11:04:43;11.10;99.90
41481;DHT22;27217;51.220;5.308;2024-02-14T11:07:10;11.00;99.90
41481;DHT22;27217;51.220;5.308;2024-02-14T11:09:38;11.00;99.90
41481;DHT22;27217;51.220;5.308;2024-02-14T11:12:07;11.10;99.90
41481;DHT22;27217;51.220;5.308;2024-02-14T11:14:36;11.10;99.90
41481;DHT22;27217;51.220;5.308;2024-02-14T11:17:10;11.20;99.90
41481;DHT22;27217;51.220;5.308;2024-02-14T11:19:35;11.20;99.90
41481;DHT22;27217;51.220;5.308;2024-02-14T11:22:11;11.20;99.90
41481;DHT22;27217;51.220;5.308;2024-02-14T11:24:40;11.10;99.90
41481;DHT22;27217;51.220;5.308;2024-02-14T11:27:10;11.20;99.90
41481;DHT22;27217;51.220;5.308;2024-02-14T11:29:35;11.30;99.90
41481;DHT22;27217;51.220;5.308;2024-02-14T11:32:01;11.30;99.90
41481;DHT22;27217;51.220;5.308;2024-02-14T11:34:27;11.40;99.90
41481;DHT22;27217;51.220;5.308;2024-02-14T11:36:53;11.30;99.90
41481;DHT22;27217;51.220;5.308;2024-02-14T11:39:20;11.40;99.90
41481;DHT22;27217;51.220;5.308;2024-02-14T11:41:45;11.50;99.90
41481;DHT22;27217;51.220;5.308;2024-02-14T11:44:11;11.60;99.90
41481;DHT22;27217;51.220;5.308;2024-02-14T11:46:40;11.70;99.90
41481;DHT22;27217;51.220;5.308;2024-02-14T11:49:07;11.40;99.90
41481;DHT22;27217;51.220;5.308;2024-02-14T11:51:33;11.50;99.90
41481;DHT22;27217;51.220;5.308;2024-02-14T11:54:00;11.50;99.90
41481;DHT22;27217;51.220;5.308;2024-02-14T11:56:32;11.60;99.90
41481;DHT22;27217;51.220;5.308;2024-02-14T11:59:01;11.70;99.90
41481;DHT22;27217;51.220;5.308;2024-02-14T12:01:30;11.70;99.90
41481;DHT22;27217;51.220;5.308;2024-02-14T12:04:06;11.50;99.90
41481;DHT22;27217;51.220;5.308;2024-02-14T12:06:35;10.90;99.90
41481;DHT22;27217;51.220;5.308;2024-02-14T12:09:01;11.60;99.90
41481;DHT22;27217;51.220;5.308;2024-02-14T12:11:31;11.50;99.90
41481;DHT22;27217;51.220;5.308;2024-02-14T12:14:00;11.70;99.90
41481;DHT22;27217;51.220;5.308;2024-02-14T12:16:26;11.70;99.90
41481;DHT22;27217;51.220;5.308;2024-02-14T12:19:03;11.80;99.90
41481;DHT22;27217;51.220;5.308;2024-02-14T12:21:32;11.60;99.90
41481;DHT22;27217;51.220;5.308;2024-02-14T12:23:58;11.50;99.90
41481;DHT22;27217;51.220;5.308;2024-02-14T12:26:24;11.30;99.90
41481;DHT22;27217;51.220;5.308;2024-02-14T12:28:51;11.40;99.90
41481;DHT22;27217;51.220;5.308;2024-02-14T12:31:23;11.40;99.90
41481;DHT22;27217;51.220;5.308;2024-02-14T12:33:49;11.60;99.90
41481;DHT22;27217;51.220;5.308;2024-02-14T12:36:14;11.70;99.90
41481;DHT22;27217;51.220;5.308;2024-02-14T12:38:40;11.60;99.90
41481;DHT22;27217;51.220;5.308;2024-02-14T12:41:06;11.60;99.90
41481;DHT22;27217;51.220;5.308;2024-02-14T12:43:31;11.70;99.90
41481;DHT22;27217;51.220;5.308;2024-02-14T12:45:57;11.90;99.90
41481;DHT22;27217;51.220;5.308;2024-02-14T12:48:23;11.90;99.90
41481;DHT22;27217;51.220;5.308;2024-02-14T12:50:51;12.00;99.90
41481;DHT22;27217;51.220;5.308;2024-02-14T12:53:21;11.90;99.90
41481;DHT22;27217;51.220;5.308;2024-02-14T12:55:47;11.80;99.90
41481;DHT22;27217;51.220;5.308;2024-02-14T12:58:12;11.80;99.90
41481;DHT22;27217;51.220;5.308;2024-02-14T13:00:38;11.70;99.90
41481;DHT22;27217;51.220;5.308;2024-02-14T13:03:04;11.80;99.90
41481;DHT22;27217;51.220;5.308;2024-02-14T13:05:30;12.00;99.90
41481;DHT22;27217;51.220;5.308;2024-02-14T13:07:56;11.80;99.90
41481;DHT22;27217;51.220;5.308;2024-02-14T13:10:22;11.60;99.90
41481;DHT22;27217;51.220;5.308;2024-02-14T13:12:47;11.80;99.90
41481;DHT22;27217;51.220;5.308;2024-02-14T13:15:13;11.90;99.90
41481;DHT22;27217;51.220;5.308;2024-02-14T13:17:39;11.60;99.90
41481;DHT22;27217;51.220;5.308;2024-02-14T13:20:04;11.70;99.90
41481;DHT22;27217;51.220;5.308;2024-02-14T13:22:30;11.50;99.90
41481;DHT22;27217;51.220;5.308;2024-02-14T13:24:56;11.60;99.90
41481;DHT22;27217;51.220;5.308;2024-02-14T13:27:22;11.60;99.90
41481;DHT22;27217;51.220;5.308;2024-02-14T13:29:48;11.90;99.90
41481;DHT22;27217;51.220;5.308;2024-02-14T13:32:15;11.80;99.90
41481;DHT22;27217;51.220;5.308;2024-02-14T13:34:40;11.90;99.90
41481;DHT22;27217;51.220;5.308;2024-02-14T13:37:06;11.80;99.90
41481;DHT22;27217;51.220;5.308;2024-02-14T13:39:32;11.80;99.90
41481;DHT22;27217;51.220;5.308;2024-02-14T13:41:58;11.70;99.90
41481;DHT22;27217;51.220;5.308;2024-02-14T13:44:25;11.70;99.90
41481;DHT22;27217;51.220;5.308;2024-02-14T13:46:53;11.60;99.90
41481;DHT22;27217;51.220;5.308;2024-02-14T13:49:19;11.80;99.90
41481;DHT22;27217;51.220;5.308;2024-02-14T13:51:48;11.70;99.90
41481;DHT22;27217;51.220;5.308;2024-02-14T13:54:14;11.90;99.90
41481;DHT22;27217;51.220;5.308;2024-02-14T13:56:40;11.80;99.90
41481;DHT22;27217;51.220;5.308;2024-02-14T13:59:06;11.80;99.90
41481;DHT22;27217;51.220;5.308;2024-02-14T14:01:32;11.80;99.90
41481;DHT22;27217;51.220;5.308;2024-02-14T14:03:57;11.90;99.90
41481;DHT22;27217;51.220;5.308;2024-02-14T14:06:23;12.10;99.90
41481;DHT22;27217;51.220;5.308;2024-02-14T14:08:50;12.10;99.90
41481;DHT22;27217;51.220;5.308;2024-02-14T14:11:16;12.00;99.90
41481;DHT22;27217;51.220;5.308;2024-02-14T14:13:42;11.80;99.90
41481;DHT22;27217;51.220;5.308;2024-02-14T14:16:07;11.90;99.90
41481;DHT22;27217;51.220;5.308;2024-02-14T14:18:34;12.00;99.90
41481;DHT22;27217;51.220;5.308;2024-02-14T14:21:00;12.00;99.90
41481;DHT22;27217;51.220;5.308;2024-02-14T14:23:25;12.10;99.90
41481;DHT22;27217;51.220;5.308;2024-02-14T14:25:51;12.20;99.90
41481;DHT22;27217;51.220;5.308;2024-02-14T14:28:17;12.20;99.90
41481;DHT22;27217;51.220;5.308;2024-02-14T14:30:44;12.30;99.90
41481;DHT22;27217;51.220;5.308;2024-02-14T14:33:10;12.10;99.90
41481;DHT22;27217;51.220;5.308;2024-02-14T14:35:36;12.00;99.90
41481;DHT22;27217;51.220;5.308;2024-02-14T14:38:02;12.00;99.90
41481;DHT22;27217;51.220;5.308;2024-02-14T14:40:28;12.00;99.90
41481;DHT22;27217;51.220;5.308;2024-02-14T14:42:54;11.90;99.90
41481;DHT22;27217;51.220;5.308;2024-02-14T14:45:19;12.00;99.90
41481;DHT22;27217;51.220;5.308;2024-02-14T14:47:45;11.90;99.90
41481;DHT22;27217;51.220;5.308;2024-02-14T14:50:11;12.00;99.90
41481;DHT22;27217;51.220;5.308;2024-02-14T14:52:38;12.20;99.90
41481;DHT22;27217;51.220;5.308;2024-02-14T14:55:04;12.30;99.90
41481;DHT22;27217;51.220;5.308;2024-02-14T14:57:30;12.20;99.90
41481;DHT22;27217;51.220;5.308;2024-02-14T14:59:56;12.20;99.90
41481;DHT22;27217;51.220;5.308;2024-02-14T15:02:21;12.20;99.90
41481;DHT22;27217;51.220;5.308;2024-02-14T15:04:50;12.30;99.90
41481;DHT22;27217;51.220;5.308;2024-02-14T15:07:16;12.20;99.90
41481;DHT22;27217;51.220;5.308;2024-02-14T15:09:45;12.20;99.90
41481;DHT22;27217;51.220;5.308;2024-02-14T15:12:11;12.20;99.90
41481;DHT22;27217;51.220;5.308;2024-02-14T15:14:37;12.20;99.90
41481;DHT22;27217;51.220;5.308;2024-02-14T15:17:03;12.10;99.90
41481;DHT22;27217;51.220;5.308;2024-02-14T15:19:30;12.10;99.90
41481;DHT22;27217;51.220;5.308;2024-02-14T15:21:56;12.30;99.90
41481;DHT22;27217;51.220;5.308;2024-02-14T15:24:23;12.30;99.90
41481;DHT22;27217;51.220;5.308;2024-02-14T15:26:49;12.30;99.90
41481;DHT22;27217;51.220;5.308;2024-02-14T15:29:16;12.40;99.90
41481;DHT22;27217;51.220;5.308;2024-02-14T15:32:00;12.40;99.90
41481;DHT22;27217;51.220;5.308;2024-02-14T15:34:44;12.30;99.90